createdAt,value
2023-03-23T15:58:48.238Z,15.90
2023-03-23T16:01:18.687Z,15.80
2023-03-23T16:03:53.586Z,15.80
2023-03-23T16:06:24.298Z,15.80
2023-03-23T16:08:56.534Z,15.70
2023-03-23T16:11:25.575Z,15.70
2023-03-23T16:13:52.734Z,15.70
2023-03-23T16:16:27.080Z,15.70
2023-03-23T16:18:54.225Z,15.60
2023-03-23T16:21:21.016Z,15.60
2023-03-23T16:23:47.692Z,15.60
2023-03-23T16:26:15.541Z,15.60
2023-03-23T16:28:43.354Z,15.60
2023-03-23T16:31:10.472Z,15.50
2023-03-23T16:33:37.380Z,15.50
2023-03-23T16:36:04.477Z,15.50
2023-03-23T16:38:31.549Z,15.50
2023-03-23T16:40:58.348Z,15.40
2023-03-23T16:43:25.274Z,15.40
2023-03-23T16:45:56.316Z,15.40
2023-03-23T16:48:23.787Z,15.40
2023-03-23T16:50:52.057Z,15.30
2023-03-23T16:53:19.033Z,15.30
2023-03-23T16:55:48.332Z,15.30
2023-03-23T16:58:17.732Z,15.30
2023-03-23T17:00:48.958Z,15.30
2023-03-23T17:03:16.780Z,15.20
2023-03-23T17:05:45.216Z,15.20
2023-03-23T17:08:12.253Z,15.20
2023-03-23T17:10:40.685Z,15.30
2023-03-23T17:13:08.398Z,15.20
2023-03-23T17:15:40.962Z,15.20
2023-03-23T17:18:08.277Z,15.20
2023-03-23T17:20:35.757Z,15.10
2023-03-23T17:23:03.651Z,15.10
2023-03-23T17:25:31.882Z,15.10
2023-03-23T17:28:05.298Z,15.00
2023-03-23T17:30:34.348Z,15.00
2023-03-23T17:33:01.031Z,14.90
2023-03-23T17:35:27.838Z,14.90
2023-03-23T17:37:54.568Z,14.90
2023-03-23T17:40:21.246Z,14.90
2023-03-23T17:42:47.854Z,14.90
2023-03-23T17:45:14.503Z,14.80
2023-03-23T17:47:41.220Z,14.80
2023-03-23T17:50:11.641Z,14.80
2023-03-23T17:52:39.906Z,14.80
2023-03-23T17:55:07.306Z,14.80
2023-03-23T17:57:35.203Z,14.80
2023-03-23T18:00:02.922Z,14.70
2023-03-23T18:02:29.696Z,14.80
2023-03-23T18:04:59.831Z,14.80
2023-03-23T18:07:27.496Z,14.80
2023-03-23T18:09:59.162Z,14.80
2023-03-23T18:12:26.191Z,14.70
2023-03-23T18:14:57.167Z,14.80
2023-03-23T18:17:24.120Z,14.80
2023-03-23T18:19:51.089Z,14.70
2023-03-23T18:22:17.843Z,14.70
2023-03-23T18:24:44.686Z,14.70
2023-03-23T18:27:11.436Z,14.60
2023-03-23T18:29:38.153Z,14.60
2023-03-23T18:32:07.280Z,14.60
2023-03-23T18:34:35.027Z,14.60
2023-03-23T18:37:01.866Z,14.60
2023-03-23T18:39:28.749Z,14.50
2023-03-23T18:41:55.593Z,14.50
2023-03-23T18:44:23.226Z,14.50
2023-03-23T18:46:49.881Z,14.50
2023-03-23T18:49:16.809Z,14.50
2023-03-23T18:51:43.546Z,14.40
2023-03-23T18:54:10.183Z,14.40
2023-03-23T18:56:36.922Z,14.40
2023-03-23T18:59:03.677Z,14.40
2023-03-23T19:01:30.511Z,14.40
2023-03-23T19:03:57.215Z,14.40
2023-03-23T19:06:26.497Z,14.60
2023-03-23T19:08:54.643Z,14.40
2023-03-23T19:11:25.758Z,14.40
2023-03-23T19:14:01.546Z,14.40
2023-03-23T19:16:35.464Z,14.40
2023-03-23T19:19:03.260Z,14.40
2023-03-23T19:21:32.076Z,14.40
2023-03-23T19:23:59.455Z,14.40
2023-03-23T19:26:52.240Z,14.30
2023-03-23T19:29:26.770Z,14.30
2023-03-23T19:31:57.222Z,14.30
2023-03-23T19:34:25.278Z,14.30
2023-03-23T19:36:56.452Z,14.20
2023-03-23T19:39:30.078Z,14.20
2023-03-23T19:41:56.842Z,14.20
2023-03-23T19:44:23.543Z,14.10
2023-03-23T19:46:50.702Z,14.10
2023-03-23T19:49:17.971Z,14.00
2023-03-23T19:51:45.024Z,14.00
2023-03-23T19:54:13.042Z,14.00
2023-03-23T19:56:40.000Z,14.10
2023-03-23T19:59:09.556Z,14.00
2023-03-23T20:01:36.717Z,14.00
2023-03-23T20:04:05.259Z,14.10
2023-03-23T20:06:32.826Z,14.00
2023-03-23T20:09:00.622Z,14.00
2023-03-23T20:11:28.493Z,14.00
2023-03-23T20:13:55.612Z,14.00
2023-03-23T20:16:22.979Z,14.00
2023-03-23T20:18:50.701Z,13.90
2023-03-23T20:21:20.538Z,13.90
2023-03-23T20:23:47.924Z,13.80
2023-03-23T20:26:18.486Z,13.90
2023-03-23T20:28:45.838Z,13.90
2023-03-23T20:31:23.087Z,13.90
2023-03-23T20:34:00.273Z,13.80
2023-03-23T20:36:36.316Z,13.90
2023-03-23T20:39:21.753Z,13.90
2023-03-23T20:41:50.789Z,13.80
2023-03-23T20:44:19.946Z,13.80
2023-03-23T20:46:48.362Z,13.80
2023-03-23T20:49:15.924Z,13.80
2023-03-23T20:51:43.584Z,13.70
2023-03-23T20:54:11.110Z,13.70
2023-03-23T20:56:40.276Z,13.70
2023-03-23T20:59:07.071Z,13.70
2023-03-23T21:01:34.269Z,13.80
2023-03-23T21:04:03.104Z,13.70
2023-03-23T21:06:31.036Z,13.70
2023-03-23T21:08:58.522Z,13.60
2023-03-23T21:11:28.011Z,13.60
2023-03-23T21:13:54.827Z,13.60
2023-03-23T21:16:24.139Z,13.60
2023-03-23T21:18:51.035Z,13.50
2023-03-23T21:21:18.425Z,13.50
2023-03-23T21:23:52.094Z,13.40
2023-03-23T21:26:21.491Z,13.30
2023-03-23T21:28:50.541Z,13.40
2023-03-23T21:31:18.226Z,13.30
2023-03-23T21:33:46.163Z,13.30
2023-03-23T21:36:12.916Z,13.30
2023-03-23T21:38:40.578Z,13.30
2023-03-23T21:41:11.916Z,13.30
2023-03-23T21:43:40.718Z,13.20
2023-03-23T21:46:09.244Z,13.20
2023-03-23T21:48:38.649Z,13.20
2023-03-23T21:51:11.740Z,13.10
2023-03-23T21:53:38.496Z,13.10
2023-03-23T21:56:07.253Z,13.00
2023-03-23T21:58:34.012Z,12.90
2023-03-23T22:01:02.089Z,13.00
2023-03-23T22:03:32.969Z,12.90
2023-03-23T22:06:06.641Z,12.90
2023-03-23T22:08:33.573Z,12.90
2023-03-23T22:11:02.494Z,12.80
2023-03-23T22:13:31.764Z,12.70
2023-03-23T22:16:01.057Z,12.70
2023-03-23T22:18:28.430Z,12.60
2023-03-23T22:20:55.443Z,12.60
2023-03-23T22:23:22.392Z,12.60
2023-03-23T22:25:49.173Z,12.60
2023-03-23T22:28:16.687Z,12.50
2023-03-23T22:30:43.657Z,12.50
2023-03-23T22:33:10.651Z,12.50
2023-03-23T22:35:37.580Z,12.50
2023-03-23T22:38:04.479Z,12.40
2023-03-23T22:40:31.937Z,12.40
2023-03-23T22:42:58.791Z,12.40
2023-03-23T22:45:27.238Z,12.30
2023-03-23T22:47:54.192Z,12.30
2023-03-23T22:50:24.023Z,12.30
2023-03-23T22:52:50.915Z,12.30
2023-03-23T22:55:17.810Z,12.30
2023-03-23T22:57:44.723Z,12.30
2023-03-23T23:00:14.903Z,12.30
2023-03-23T23:02:45.072Z,12.30
2023-03-23T23:05:13.133Z,12.30
2023-03-23T23:07:40.270Z,12.20
2023-03-23T23:10:07.839Z,12.20
2023-03-23T23:12:35.127Z,12.20
2023-03-23T23:15:04.326Z,12.20
2023-03-23T23:17:34.602Z,12.20
2023-03-23T23:20:01.880Z,12.20
2023-03-23T23:22:28.573Z,12.10
2023-03-23T23:24:55.337Z,12.10
2023-03-23T23:27:22.303Z,12.10
2023-03-23T23:29:49.139Z,12.10
2023-03-23T23:32:16.095Z,12.00
2023-03-23T23:34:42.831Z,12.00
2023-03-23T23:37:09.612Z,12.10
2023-03-23T23:39:38.396Z,12.00
2023-03-23T23:42:05.842Z,12.00
2023-03-23T23:44:32.702Z,12.00
2023-03-23T23:46:59.483Z,11.90
2023-03-23T23:49:27.732Z,11.90
2023-03-23T23:51:55.591Z,11.90
2023-03-23T23:54:23.021Z,11.90
2023-03-23T23:56:53.380Z,12.00
2023-03-23T23:59:20.112Z,12.00
